createdAt,value
2018-04-27T00:01:00.306Z,2.30
2018-04-27T00:02:08.500Z,2.30
2018-04-27T00:03:14.462Z,2.30
2018-04-27T00:04:21.583Z,2.30
2018-04-27T00:05:28.565Z,2.30
2018-04-27T00:06:35.412Z,1.90
2018-04-27T00:07:42.484Z,2.20
2018-04-27T00:08:49.263Z,2.30
2018-04-27T00:09:56.038Z,2.20
2018-04-27T00:11:02.903Z,2.10
2018-04-27T00:12:10.024Z,2.20
2018-04-27T00:13:16.718Z,2.30
2018-04-27T00:14:23.351Z,2.30
2018-04-27T00:15:30.119Z,2.10
2018-04-27T00:16:37.264Z,2.00
2018-04-27T00:17:43.999Z,2.20
2018-04-27T00:18:50.973Z,1.90
2018-04-27T00:19:58.046Z,1.90
2018-04-27T00:21:05.141Z,2.10
2018-04-27T00:22:12.212Z,2.00
2018-04-27T00:23:19.219Z,2.10
2018-04-27T00:24:26.201Z,2.00
2018-04-27T00:25:33.589Z,2.10
2018-04-27T00:26:40.280Z,2.20
2018-04-27T00:27:47.236Z,2.20
2018-04-27T00:28:54.230Z,1.90
2018-04-27T00:30:01.328Z,2.00
2018-04-27T00:31:08.382Z,2.40
2018-04-27T00:32:15.317Z,2.30
2018-04-27T00:33:22.432Z,2.20
2018-04-27T00:34:29.166Z,2.30
2018-04-27T00:35:36.240Z,1.80
2018-04-27T00:36:42.559Z,2.20
2018-04-27T00:37:49.759Z,2.20
2018-04-27T00:38:56.789Z,2.50
2018-04-27T00:40:03.826Z,2.30
2018-04-27T00:41:10.713Z,2.10
2018-04-27T00:42:17.678Z,2.00
2018-04-27T00:43:24.626Z,2.00
2018-04-27T00:44:31.666Z,2.40
2018-04-27T00:45:38.939Z,1.80
2018-04-27T00:46:45.400Z,2.40
2018-04-27T00:47:52.412Z,2.20
2018-04-27T00:48:59.344Z,2.30
2018-04-27T00:50:06.346Z,2.40
2018-04-27T00:51:13.436Z,2.20
2018-04-27T00:52:22.744Z,2.30
2018-04-27T00:53:26.882Z,2.40
2018-04-27T00:54:33.930Z,2.10
2018-04-27T00:55:40.868Z,2.40
2018-04-27T00:56:47.848Z,2.30
2018-04-27T00:57:54.767Z,2.40
2018-04-27T00:59:01.699Z,2.70
2018-04-27T01:00:08.799Z,2.90
2018-04-27T01:01:15.552Z,2.70
2018-04-27T01:02:22.646Z,2.30
2018-04-27T01:03:30.612Z,2.40
2018-04-27T01:04:36.222Z,2.20
2018-04-27T01:05:43.208Z,2.40
2018-04-27T01:06:50.376Z,2.60
2018-04-27T01:07:56.841Z,2.40
2018-04-27T01:09:03.932Z,2.40
2018-04-27T01:10:11.015Z,2.60
2018-04-27T01:11:17.772Z,2.20
2018-04-27T01:12:24.510Z,2.40
2018-04-27T01:13:31.243Z,2.40
2018-04-27T01:14:38.045Z,2.70
2018-04-27T01:15:44.827Z,2.20
2018-04-27T01:16:51.862Z,2.40
2018-04-27T01:17:58.595Z,2.50
2018-04-27T01:19:05.373Z,2.50
2018-04-27T01:20:12.133Z,2.40
2018-04-27T01:21:18.948Z,2.40
2018-04-27T01:22:26.548Z,2.30
2018-04-27T01:23:32.819Z,2.60
2018-04-27T01:24:39.629Z,2.60
2018-04-27T01:25:46.410Z,2.30
2018-04-27T01:26:53.410Z,2.20
2018-04-27T01:28:00.136Z,2.40
2018-04-27T01:29:06.975Z,2.20
2018-04-27T01:30:13.745Z,2.50
2018-04-27T01:31:20.497Z,2.20
2018-04-27T01:32:27.307Z,2.40
2018-04-27T01:33:34.074Z,2.20
2018-04-27T01:34:40.826Z,2.30
2018-04-27T01:35:47.637Z,2.40
2018-04-27T01:36:54.379Z,2.40
2018-04-27T01:38:01.145Z,2.30
2018-04-27T01:39:07.972Z,2.10
2018-04-27T01:40:14.923Z,2.40
2018-04-27T01:41:22.110Z,2.30
2018-04-27T01:42:29.042Z,2.20
2018-04-27T01:43:36.023Z,2.40
2018-04-27T01:44:42.992Z,2.30
2018-04-27T01:45:50.096Z,2.50
2018-04-27T01:46:57.088Z,2.60
2018-04-27T01:48:04.001Z,2.20
2018-04-27T01:49:10.932Z,2.20
2018-04-27T01:50:17.886Z,2.60
2018-04-27T01:51:24.847Z,2.00
2018-04-27T01:52:31.808Z,2.10
2018-04-27T01:53:38.766Z,2.30
2018-04-27T01:54:45.799Z,2.40
2018-04-27T01:55:52.675Z,2.60
2018-04-27T01:56:59.582Z,2.10
2018-04-27T01:58:06.363Z,2.30
2018-04-27T01:59:13.360Z,2.10
2018-04-27T02:01:26.792Z,2.30
2018-04-27T02:02:33.888Z,2.20
2018-04-27T02:03:40.951Z,2.40
2018-04-27T02:04:51.364Z,2.20
2018-04-27T02:05:54.608Z,2.40
2018-04-27T02:07:01.548Z,2.20
2018-04-27T02:08:08.625Z,2.10
2018-04-27T02:09:15.713Z,2.50
2018-04-27T02:10:22.715Z,2.30
2018-04-27T02:11:29.757Z,2.40
2018-04-27T02:12:36.779Z,2.10
2018-04-27T02:13:43.880Z,2.20
2018-04-27T02:14:50.874Z,2.10
2018-04-27T02:15:57.956Z,2.40
2018-04-27T02:17:05.060Z,2.20
2018-04-27T02:18:11.900Z,2.10
2018-04-27T02:19:18.896Z,1.80
2018-04-27T02:20:26.792Z,2.20
2018-04-27T02:21:33.032Z,2.10
2018-04-27T02:22:39.660Z,2.30
2018-04-27T02:23:46.475Z,2.20
2018-04-27T02:24:53.276Z,2.30
2018-04-27T02:26:00.380Z,2.40
2018-04-27T02:27:07.224Z,2.50
2018-04-27T02:28:14.257Z,2.40
2018-04-27T02:29:21.269Z,2.20
2018-04-27T02:30:28.236Z,2.30
2018-04-27T02:31:35.056Z,2.20
2018-04-27T02:32:43.841Z,1.60
2018-04-27T02:33:48.979Z,2.50
2018-04-27T02:34:55.940Z,2.20
2018-04-27T02:36:02.744Z,2.60
2018-04-27T02:37:09.453Z,2.60
2018-04-27T02:38:16.442Z,1.90
2018-04-27T02:39:23.552Z,2.40
2018-04-27T02:41:43.933Z,2.20
2018-04-27T02:42:44.636Z,2.10
2018-04-27T02:43:51.533Z,2.20
2018-04-27T02:44:58.652Z,2.20
2018-04-27T02:46:05.296Z,2.30
2018-04-27T02:47:12.288Z,2.20
2018-04-27T02:48:19.268Z,2.20
2018-04-27T02:49:26.247Z,2.20
2018-04-27T02:51:40.309Z,2.70
2018-04-27T02:52:47.107Z,2.50
2018-04-27T02:53:54.190Z,2.30
2018-04-27T02:55:01.347Z,2.20
2018-04-27T02:56:08.404Z,2.20
2018-04-27T02:57:15.330Z,2.60
2018-04-27T02:58:22.134Z,2.60
2018-04-27T02:59:29.160Z,2.40
2018-04-27T03:00:36.052Z,3.00
2018-04-27T03:01:42.647Z,2.20
2018-04-27T03:02:49.838Z,2.40
2018-04-27T03:03:56.751Z,2.30
2018-04-27T03:05:03.633Z,2.20
2018-04-27T03:06:10.708Z,2.50
2018-04-27T03:07:17.484Z,2.30
2018-04-27T03:08:30.459Z,2.20
2018-04-27T03:09:31.371Z,3.00
2018-04-27T03:10:38.217Z,2.40
2018-04-27T03:11:45.283Z,2.40
2018-04-27T03:12:52.078Z,2.50
2018-04-27T03:13:58.860Z,2.60
2018-04-27T03:15:05.948Z,2.80
2018-04-27T03:16:12.776Z,2.70
2018-04-27T03:17:19.485Z,2.20
2018-04-27T03:18:26.500Z,2.40
2018-04-27T03:19:33.438Z,2.20
2018-04-27T03:20:40.735Z,2.30
2018-04-27T03:21:47.704Z,2.00
2018-04-27T03:22:54.835Z,2.40
2018-04-27T03:24:01.581Z,2.30
2018-04-27T03:25:08.464Z,2.70
2018-04-27T03:26:15.438Z,2.40
2018-04-27T03:27:22.572Z,2.60
2018-04-27T03:28:29.424Z,2.40
2018-04-27T03:29:36.470Z,2.50
2018-04-27T03:30:43.180Z,2.60
2018-04-27T03:31:50.152Z,3.10
2018-04-27T03:32:57.229Z,2.60
2018-04-27T03:34:04.348Z,2.40
2018-04-27T03:35:11.422Z,2.80
2018-04-27T03:36:18.197Z,3.10
2018-04-27T03:37:25.280Z,2.60
2018-04-27T03:38:32.448Z,2.60
2018-04-27T03:39:39.556Z,2.40
2018-04-27T03:40:46.573Z,2.70
2018-04-27T03:41:55.386Z,2.80
2018-04-27T03:43:00.096Z,2.70
2018-04-27T03:44:06.749Z,2.80
2018-04-27T03:45:13.500Z,2.20
2018-04-27T03:46:20.308Z,2.50
2018-04-27T03:47:27.083Z,3.00
2018-04-27T03:48:34.219Z,2.60
2018-04-27T03:49:41.172Z,2.60
2018-04-27T03:50:48.139Z,3.20
2018-04-27T03:51:55.318Z,2.50
2018-04-27T03:54:08.941Z,2.60
2018-04-27T03:55:15.926Z,2.50
2018-04-27T03:56:23.134Z,2.50
2018-04-27T03:57:29.918Z,2.50
2018-04-27T03:58:37.104Z,2.70
2018-04-27T03:59:44.166Z,2.40
2018-04-27T04:01:58.020Z,2.90
2018-04-27T04:03:08.735Z,3.00
2018-04-27T04:04:15.554Z,2.40
2018-04-27T04:05:28.404Z,2.50
2018-04-27T04:06:35.178Z,2.60
2018-04-27T04:07:42.268Z,2.70
2018-04-27T04:08:49.463Z,2.50
2018-04-27T04:09:56.567Z,2.90
2018-04-27T04:11:03.717Z,2.70
2018-04-27T04:12:10.552Z,2.80
2018-04-27T04:13:17.450Z,2.90
2018-04-27T04:14:24.277Z,2.60
2018-04-27T04:15:31.122Z,2.80
2018-04-27T04:16:38.011Z,2.80
2018-04-27T04:17:45.606Z,3.40
2018-04-27T04:18:52.067Z,2.50
2018-04-27T04:19:58.988Z,2.50
2018-04-27T04:21:05.851Z,2.80
2018-04-27T04:22:12.689Z,2.80
2018-04-27T04:23:19.597Z,3.30
2018-04-27T04:24:26.493Z,2.50
2018-04-27T04:25:33.404Z,2.90
2018-04-27T04:26:40.264Z,2.70
2018-04-27T04:27:47.119Z,3.10
2018-04-27T04:28:53.920Z,2.60
2018-04-27T04:30:00.729Z,2.70
2018-04-27T04:31:07.883Z,2.40
2018-04-27T04:32:14.806Z,2.60
2018-04-27T04:33:21.698Z,3.10
2018-04-27T04:34:28.540Z,2.70
2018-04-27T04:35:35.472Z,3.10
2018-04-27T04:36:42.271Z,2.60
2018-04-27T04:37:49.162Z,2.60
2018-04-27T04:38:55.971Z,3.20
2018-04-27T04:40:02.773Z,3.10
2018-04-27T04:41:09.567Z,2.70
2018-04-27T04:42:16.424Z,3.00
2018-04-27T04:43:23.247Z,2.70
2018-04-27T04:44:30.047Z,3.10
2018-04-27T04:45:36.844Z,2.70
2018-04-27T04:46:43.594Z,2.70
2018-04-27T04:47:50.348Z,3.20
2018-04-27T04:48:57.102Z,2.80
2018-04-27T04:50:03.952Z,2.90
2018-04-27T04:51:10.746Z,2.70
2018-04-27T04:52:17.502Z,3.40
2018-04-27T04:53:24.406Z,2.50
2018-04-27T04:54:31.152Z,2.80
2018-04-27T04:55:37.873Z,3.20
2018-04-27T04:56:44.615Z,3.00
2018-04-27T04:57:51.329Z,3.80
2018-04-27T04:58:58.194Z,3.30
2018-04-27T05:00:04.978Z,3.40
2018-04-27T05:01:11.695Z,2.80
2018-04-27T05:02:18.470Z,2.70
2018-04-27T05:03:25.294Z,2.60
2018-04-27T05:04:32.111Z,2.50
2018-04-27T05:05:38.863Z,3.00
2018-04-27T05:06:45.763Z,2.90
2018-04-27T05:07:52.498Z,2.60
2018-04-27T05:08:59.270Z,2.90
2018-04-27T05:10:06.039Z,2.80
2018-04-27T05:11:12.860Z,2.90
2018-04-27T05:12:19.730Z,2.90
2018-04-27T05:13:26.458Z,3.00
2018-04-27T05:14:33.292Z,3.00
2018-04-27T05:15:40.014Z,3.10
2018-04-27T05:16:46.737Z,2.70
2018-04-27T05:17:53.480Z,2.80
2018-04-27T05:19:00.392Z,3.30
2018-04-27T05:20:07.360Z,3.00
2018-04-27T05:21:14.138Z,2.70
2018-04-27T05:22:20.882Z,2.80
2018-04-27T05:23:27.625Z,2.90
2018-04-27T05:24:34.382Z,2.80
2018-04-27T05:25:41.143Z,2.50
2018-04-27T05:26:47.884Z,3.20
2018-04-27T05:27:54.606Z,3.00
2018-04-27T05:29:01.365Z,2.90
2018-04-27T05:30:08.175Z,3.10
2018-04-27T05:31:15.061Z,3.30
2018-04-27T05:32:21.919Z,3.40
2018-04-27T05:33:28.739Z,3.50
2018-04-27T05:34:35.502Z,3.80
2018-04-27T05:35:42.389Z,3.70
2018-04-27T05:36:49.567Z,3.70
2018-04-27T05:37:56.511Z,3.60
2018-04-27T05:39:03.768Z,3.60
2018-04-27T05:40:12.092Z,6.80
2018-04-27T05:41:18.592Z,7.50
2018-04-27T05:42:24.176Z,9.30
2018-04-27T05:43:31.232Z,9.10
2018-04-27T05:44:37.919Z,7.40
2018-04-27T05:45:46.786Z,3.00
2018-04-27T05:46:51.814Z,6.30
2018-04-27T05:47:59.897Z,6.50
2018-04-27T05:49:05.935Z,6.40
2018-04-27T05:50:12.751Z,6.30
2018-04-27T05:51:19.528Z,5.40
2018-04-27T05:52:27.569Z,5.80
2018-04-27T05:53:33.401Z,5.60
2018-04-27T05:54:40.222Z,5.60
2018-04-27T05:55:47.388Z,5.00
2018-04-27T05:56:54.120Z,5.10
2018-04-27T05:58:01.190Z,4.70
2018-04-27T05:59:08.204Z,5.30
2018-04-27T06:00:15.134Z,4.90
2018-04-27T06:01:22.175Z,4.20
2018-04-27T06:02:29.138Z,4.50
2018-04-27T06:03:36.076Z,4.00
2018-04-27T06:04:43.127Z,4.60
2018-04-27T06:05:50.082Z,4.50
2018-04-27T06:06:57.086Z,4.60
2018-04-27T06:08:04.110Z,4.80
2018-04-27T06:09:11.014Z,3.80
2018-04-27T06:10:17.887Z,5.00
2018-04-27T06:11:24.815Z,3.50
2018-04-27T06:12:31.788Z,3.60
2018-04-27T06:13:38.696Z,3.40
2018-04-27T06:14:45.730Z,3.80
2018-04-27T06:15:52.610Z,3.40
2018-04-27T06:16:59.514Z,3.70
2018-04-27T06:18:06.366Z,4.30
2018-04-27T06:19:13.260Z,3.40
2018-04-27T06:20:20.081Z,3.90
2018-04-27T06:21:26.912Z,3.60
2018-04-27T06:22:33.904Z,3.60
2018-04-27T06:23:40.858Z,3.30
2018-04-27T06:24:47.653Z,3.30
2018-04-27T06:25:54.628Z,3.50
2018-04-27T06:27:01.561Z,3.70
2018-04-27T06:28:08.458Z,3.90
2018-04-27T06:29:15.364Z,3.30
2018-04-27T06:30:22.191Z,4.00
2018-04-27T06:31:29.084Z,3.30
2018-04-27T06:32:36.005Z,4.00
2018-04-27T06:33:42.903Z,4.10
2018-04-27T06:34:49.840Z,5.60
2018-04-27T06:35:56.892Z,5.30
2018-04-27T06:37:03.724Z,5.70
2018-04-27T06:38:10.567Z,6.20
2018-04-27T06:39:17.420Z,5.80
2018-04-27T06:40:24.186Z,5.50
2018-04-27T06:41:31.111Z,6.30
2018-04-27T06:42:37.916Z,5.80
2018-04-27T06:43:44.751Z,5.90
2018-04-27T06:44:51.547Z,5.70
2018-04-27T06:45:58.375Z,7.10
2018-04-27T06:47:05.305Z,7.20
2018-04-27T06:48:12.118Z,5.80
2018-04-27T06:49:18.933Z,7.40
2018-04-27T06:50:25.758Z,5.60
2018-04-27T06:51:32.652Z,6.30
2018-04-27T06:52:39.417Z,6.30
2018-04-27T06:53:46.183Z,5.40
2018-04-27T06:54:52.975Z,5.00
2018-04-27T06:55:59.714Z,4.20
2018-04-27T06:57:06.603Z,4.20
2018-04-27T06:58:13.491Z,4.40
2018-04-27T06:59:20.211Z,4.10
2018-04-27T07:00:27.095Z,4.60
2018-04-27T07:01:33.938Z,4.80
2018-04-27T07:02:40.822Z,4.60
2018-04-27T07:03:47.703Z,4.10
2018-04-27T07:04:54.582Z,4.20
2018-04-27T07:06:01.478Z,3.90
2018-04-27T07:07:08.363Z,4.80
2018-04-27T07:08:15.202Z,4.00
2018-04-27T07:09:22.139Z,5.50
2018-04-27T07:10:28.972Z,4.90
2018-04-27T07:11:35.747Z,4.80
2018-04-27T07:12:42.545Z,5.00
2018-04-27T07:13:49.366Z,4.50
2018-04-27T07:14:56.311Z,4.70
2018-04-27T07:16:03.090Z,4.40
2018-04-27T07:17:09.960Z,4.30
2018-04-27T07:18:16.722Z,4.50
2018-04-27T07:19:23.479Z,4.20
2018-04-27T07:20:30.239Z,4.40
2018-04-27T07:21:37.230Z,4.80
2018-04-27T07:22:43.998Z,4.30
2018-04-27T07:23:50.771Z,4.20
2018-04-27T07:24:57.669Z,4.10
2018-04-27T07:26:04.421Z,4.20
2018-04-27T07:27:11.159Z,4.00
2018-04-27T07:28:17.963Z,3.90
2018-04-27T07:29:24.715Z,5.10
2018-04-27T07:30:31.514Z,4.60
2018-04-27T07:31:38.271Z,4.50
2018-04-27T07:32:45.060Z,4.60
2018-04-27T07:33:51.911Z,4.40
2018-04-27T07:34:58.633Z,5.00
2018-04-27T07:36:05.436Z,4.30
2018-04-27T07:37:12.227Z,4.40
2018-04-27T07:38:19.020Z,5.00
2018-04-27T07:39:25.863Z,4.30
2018-04-27T07:40:32.663Z,4.10
2018-04-27T07:41:39.503Z,4.30
2018-04-27T07:42:46.576Z,4.30
2018-04-27T07:43:53.376Z,3.90
2018-04-27T07:45:00.310Z,4.80
2018-04-27T07:46:07.171Z,4.40
2018-04-27T07:47:14.000Z,4.30
2018-04-27T07:48:20.758Z,4.60
2018-04-27T07:49:27.587Z,4.60
2018-04-27T07:50:34.426Z,4.40
2018-04-27T07:51:41.355Z,5.00
2018-04-27T07:52:48.119Z,4.50
2018-04-27T07:53:54.894Z,4.50
2018-04-27T07:55:01.763Z,4.50
2018-04-27T07:56:08.603Z,4.70
2018-04-27T07:57:15.529Z,4.80
2018-04-27T07:58:22.427Z,4.70
2018-04-27T07:59:29.338Z,4.90
2018-04-27T08:00:36.222Z,4.40
2018-04-27T08:01:43.102Z,4.70
2018-04-27T08:02:49.980Z,4.20
2018-04-27T08:03:56.925Z,4.40
2018-04-27T08:05:03.805Z,4.20
2018-04-27T08:06:10.680Z,4.00
2018-04-27T08:07:17.532Z,4.90
2018-04-27T08:08:24.267Z,4.40
2018-04-27T08:09:31.105Z,3.90
2018-04-27T08:10:37.868Z,4.10
2018-04-27T08:11:44.707Z,4.60
2018-04-27T08:12:51.552Z,4.80
2018-04-27T08:13:58.387Z,4.10
2018-04-27T08:15:05.327Z,4.00
2018-04-27T08:16:12.149Z,4.20
2018-04-27T08:17:18.932Z,4.20
2018-04-27T08:18:25.847Z,3.90
2018-04-27T08:19:32.702Z,4.70
2018-04-27T08:20:39.535Z,4.20
2018-04-27T08:21:46.370Z,4.40
2018-04-27T08:22:53.298Z,4.40
2018-04-27T08:24:00.191Z,4.50
2018-04-27T08:25:07.966Z,4.60
2018-04-27T08:26:13.797Z,3.80
2018-04-27T08:27:20.962Z,4.10
2018-04-27T08:28:27.845Z,3.80
2018-04-27T08:29:34.739Z,4.20
2018-04-27T08:30:41.785Z,3.90
2018-04-27T08:31:48.566Z,3.90
2018-04-27T08:32:55.439Z,4.00
2018-04-27T08:34:02.450Z,4.00
2018-04-27T08:35:09.295Z,4.10
2018-04-27T08:36:16.393Z,4.00
2018-04-27T08:37:23.088Z,3.90
2018-04-27T08:38:29.780Z,4.10
2018-04-27T08:39:36.542Z,3.80
2018-04-27T08:40:43.286Z,4.20
2018-04-27T08:41:50.003Z,3.80
2018-04-27T08:42:56.772Z,3.20
2018-04-27T08:44:03.510Z,3.90
2018-04-27T08:45:10.242Z,3.60
2018-04-27T08:46:16.972Z,3.70
2018-04-27T08:47:23.663Z,3.50
2018-04-27T08:48:30.428Z,3.20
2018-04-27T08:49:37.243Z,3.40
2018-04-27T08:50:44.055Z,3.70
2018-04-27T08:51:50.827Z,3.90
2018-04-27T08:52:57.685Z,3.40
2018-04-27T08:54:04.449Z,3.20
2018-04-27T08:55:11.227Z,3.20
2018-04-27T08:56:18.083Z,3.70
2018-04-27T08:57:25.003Z,3.80
2018-04-27T08:58:31.889Z,3.40
2018-04-27T08:59:38.778Z,3.40
2018-04-27T09:00:45.581Z,3.50
2018-04-27T09:01:52.410Z,3.70
2018-04-27T09:02:59.194Z,3.30
2018-04-27T09:04:05.895Z,3.60
2018-04-27T09:05:12.619Z,3.40
2018-04-27T09:07:26.479Z,3.60
2018-04-27T09:08:33.211Z,3.40
2018-04-27T09:09:39.999Z,3.30
2018-04-27T09:10:47.327Z,3.70
2018-04-27T09:11:53.627Z,4.00
2018-04-27T09:13:00.378Z,3.50
2018-04-27T09:14:07.197Z,3.00
2018-04-27T09:15:13.923Z,3.40
2018-04-27T09:16:20.856Z,3.50
2018-04-27T09:17:27.559Z,3.00
2018-04-27T09:18:34.641Z,3.40
2018-04-27T09:19:42.428Z,3.90
2018-04-27T09:20:48.286Z,4.10
2018-04-27T09:21:55.070Z,3.50
2018-04-27T09:23:01.796Z,3.60
2018-04-27T09:24:08.556Z,3.60
2018-04-27T09:25:15.351Z,3.00
2018-04-27T09:26:22.104Z,3.30
2018-04-27T09:27:28.976Z,3.20
2018-04-27T09:28:35.722Z,3.00
2018-04-27T09:29:42.863Z,3.50
2018-04-27T09:30:49.166Z,3.20
2018-04-27T09:31:56.550Z,3.50
2018-04-27T09:33:02.791Z,3.10
2018-04-27T09:34:09.533Z,2.90
2018-04-27T09:35:16.355Z,3.30
2018-04-27T09:36:23.170Z,3.00
2018-04-27T09:37:29.910Z,2.70
2018-04-27T09:38:36.654Z,3.00
2018-04-27T09:39:43.359Z,3.20
2018-04-27T09:40:50.076Z,2.70
2018-04-27T09:41:56.932Z,3.10
2018-04-27T09:43:03.758Z,3.00
2018-04-27T09:44:10.658Z,3.10
2018-04-27T09:45:17.418Z,3.10
2018-04-27T09:46:24.228Z,3.00
2018-04-27T09:47:30.951Z,2.80
2018-04-27T09:48:37.731Z,2.50
2018-04-27T09:49:44.510Z,3.00
2018-04-27T09:50:51.415Z,3.10
2018-04-27T09:51:58.287Z,2.80
2018-04-27T09:53:05.218Z,3.20
2018-04-27T09:54:11.993Z,2.50
2018-04-27T09:55:18.788Z,2.90
2018-04-27T09:56:25.522Z,2.80
2018-04-27T09:57:32.300Z,2.70
2018-04-27T09:58:39.073Z,2.80
2018-04-27T09:59:45.867Z,2.90
2018-04-27T10:00:52.873Z,2.80
2018-04-27T10:01:59.637Z,2.60
2018-04-27T10:03:06.390Z,3.10
2018-04-27T10:04:13.491Z,2.30
2018-04-27T10:05:19.831Z,3.10
2018-04-27T10:06:26.631Z,3.00
2018-04-27T10:07:33.437Z,3.20
2018-04-27T10:08:40.275Z,3.20
2018-04-27T10:09:47.101Z,3.00
2018-04-27T10:10:53.978Z,2.50
2018-04-27T10:12:00.730Z,2.90
2018-04-27T10:13:07.526Z,2.70
2018-04-27T10:14:14.327Z,3.10
2018-04-27T10:15:21.110Z,2.90
2018-04-27T10:16:27.863Z,3.40
2018-04-27T10:17:34.712Z,3.30
2018-04-27T10:18:41.814Z,2.60
2018-04-27T10:19:48.621Z,2.90
2018-04-27T10:20:55.385Z,2.70
2018-04-27T10:22:02.265Z,2.60
2018-04-27T10:23:09.223Z,3.00
2018-04-27T10:24:16.083Z,2.50
2018-04-27T10:25:22.826Z,3.10
2018-04-27T10:26:30.023Z,2.50
2018-04-27T10:27:36.802Z,2.90
2018-04-27T10:28:43.666Z,3.00
2018-04-27T10:29:50.560Z,2.70
2018-04-27T10:30:57.379Z,2.60
2018-04-27T10:32:04.128Z,3.10
2018-04-27T10:33:10.914Z,2.70
2018-04-27T10:34:17.678Z,2.50
2018-04-27T10:35:24.444Z,2.70
2018-04-27T10:36:31.231Z,2.80
2018-04-27T10:37:37.988Z,3.10
2018-04-27T10:38:44.713Z,2.70
2018-04-27T10:39:51.490Z,2.60
2018-04-27T10:40:58.318Z,3.00
2018-04-27T10:42:05.078Z,2.90
2018-04-27T10:43:11.834Z,2.20
2018-04-27T10:44:18.554Z,2.70
2018-04-27T10:45:25.352Z,3.00
2018-04-27T10:46:32.104Z,2.80
2018-04-27T10:47:38.953Z,2.80
2018-04-27T10:48:46.007Z,2.60
2018-04-27T10:49:52.846Z,2.90
2018-04-27T10:50:59.729Z,2.70
2018-04-27T10:52:06.562Z,2.70
2018-04-27T10:53:13.354Z,2.70
2018-04-27T10:54:20.155Z,2.60
2018-04-27T10:55:26.995Z,2.80
2018-04-27T10:56:33.747Z,2.60
2018-04-27T10:57:40.594Z,2.60
2018-04-27T10:58:47.369Z,2.70
2018-04-27T10:59:54.247Z,2.70
2018-04-27T11:01:01.094Z,2.40
2018-04-27T11:02:07.992Z,2.60
2018-04-27T11:03:14.925Z,3.10
2018-04-27T11:04:21.683Z,2.50
2018-04-27T11:05:28.532Z,2.20
2018-04-27T11:06:35.672Z,2.70
2018-04-27T11:07:42.148Z,2.40
2018-04-27T11:08:48.955Z,2.50
2018-04-27T11:09:55.759Z,2.10
2018-04-27T11:11:02.644Z,2.10
2018-04-27T11:12:09.581Z,2.30
2018-04-27T11:13:16.451Z,2.40
2018-04-27T11:14:23.351Z,2.30
2018-04-27T11:15:30.219Z,2.50
2018-04-27T11:16:37.003Z,2.20
2018-04-27T11:17:43.820Z,2.10
2018-04-27T11:18:50.670Z,2.80
2018-04-27T11:19:57.607Z,2.40
2018-04-27T11:21:04.454Z,2.30
2018-04-27T11:22:11.270Z,2.10
2018-04-27T11:23:18.062Z,2.30
2018-04-27T11:24:24.916Z,2.40
2018-04-27T11:25:31.832Z,2.40
2018-04-27T11:26:38.835Z,2.30
2018-04-27T11:27:45.614Z,2.00
2018-04-27T11:28:52.350Z,2.50
2018-04-27T11:29:59.055Z,2.60
2018-04-27T11:31:05.760Z,2.00
2018-04-27T11:32:12.498Z,2.50
2018-04-27T11:33:19.201Z,2.30
2018-04-27T11:34:25.991Z,2.20
2018-04-27T11:35:32.747Z,2.30
2018-04-27T11:36:39.647Z,2.20
2018-04-27T11:37:46.438Z,2.20
2018-04-27T11:38:53.235Z,2.10
2018-04-27T11:40:00.012Z,2.30
2018-04-27T11:41:06.856Z,2.00
2018-04-27T11:42:13.623Z,2.40
2018-04-27T11:43:20.347Z,2.60
2018-04-27T11:44:27.125Z,2.50
2018-04-27T11:45:33.912Z,2.30
2018-04-27T11:46:40.723Z,2.70
2018-04-27T11:47:47.752Z,2.10
2018-04-27T11:48:54.619Z,2.00
2018-04-27T11:50:01.334Z,2.30
2018-04-27T11:51:08.146Z,2.30
2018-04-27T11:52:15.041Z,2.40
2018-04-27T11:53:21.994Z,2.30
2018-04-27T11:54:28.799Z,2.30
2018-04-27T11:55:35.714Z,2.30
2018-04-27T11:56:43.428Z,2.20
2018-04-27T11:57:49.735Z,2.00
2018-04-27T11:58:56.635Z,2.30
2018-04-27T12:00:03.453Z,2.20
2018-04-27T12:01:10.441Z,2.00
2018-04-27T12:02:17.364Z,2.20
2018-04-27T12:03:24.246Z,2.10
2018-04-27T12:04:31.243Z,2.20
2018-04-27T12:05:38.209Z,2.10
2018-04-27T12:06:45.156Z,2.20
2018-04-27T12:07:51.949Z,3.20
2018-04-27T12:08:58.775Z,2.20
2018-04-27T12:10:05.579Z,2.10
2018-04-27T12:11:12.495Z,2.00
2018-04-27T12:12:19.355Z,2.30
2018-04-27T12:13:26.243Z,2.00
2018-04-27T12:14:33.168Z,2.00
2018-04-27T12:15:39.918Z,2.00
2018-04-27T12:16:46.758Z,2.00
2018-04-27T12:17:53.609Z,2.20
2018-04-27T12:19:00.763Z,2.00
2018-04-27T12:20:07.593Z,2.20
2018-04-27T12:21:14.314Z,2.00
2018-04-27T12:22:21.026Z,2.30
2018-04-27T12:23:27.838Z,2.50
2018-04-27T12:24:34.799Z,1.90
2018-04-27T12:25:41.295Z,1.90
2018-04-27T12:26:48.124Z,2.10
2018-04-27T12:27:54.886Z,2.00
2018-04-27T12:29:01.606Z,2.10
2018-04-27T12:30:08.319Z,1.90
2018-04-27T12:31:15.164Z,2.10
2018-04-27T12:32:21.962Z,2.00
2018-04-27T12:33:28.659Z,2.50
2018-04-27T12:34:35.429Z,2.30
2018-04-27T12:35:42.166Z,2.40
2018-04-27T12:36:48.866Z,2.50
2018-04-27T12:37:55.683Z,2.40
2018-04-27T12:39:02.471Z,2.10
2018-04-27T12:40:09.327Z,2.00
2018-04-27T12:41:16.188Z,2.40
2018-04-27T12:42:22.918Z,2.30
2018-04-27T12:43:29.888Z,2.40
2018-04-27T12:44:36.742Z,2.40
2018-04-27T12:45:43.791Z,2.90
2018-04-27T12:46:50.615Z,2.50
2018-04-27T12:47:57.459Z,2.20
2018-04-27T12:49:04.276Z,2.50
2018-04-27T12:50:11.078Z,2.80
2018-04-27T12:51:17.912Z,3.20
2018-04-27T12:52:24.761Z,2.80
2018-04-27T12:53:31.670Z,2.90
2018-04-27T12:54:38.576Z,3.20
2018-04-27T12:55:45.482Z,3.20
2018-04-27T12:56:52.334Z,3.20
2018-04-27T12:57:59.241Z,3.00
2018-04-27T12:59:06.052Z,2.80
2018-04-27T13:00:12.830Z,3.00
2018-04-27T13:01:19.662Z,2.90
2018-04-27T13:02:26.442Z,3.10
2018-04-27T13:03:33.191Z,3.60
2018-04-27T13:04:39.922Z,3.00
2018-04-27T13:05:46.748Z,3.20
2018-04-27T13:06:53.589Z,2.80
2018-04-27T13:08:00.617Z,3.20
2018-04-27T13:09:07.334Z,3.00
2018-04-27T13:10:14.174Z,2.70
2018-04-27T13:11:20.994Z,3.10
2018-04-27T13:12:27.822Z,3.30
2018-04-27T13:13:34.779Z,3.00
2018-04-27T13:14:41.641Z,3.30
2018-04-27T13:15:48.613Z,3.20
2018-04-27T13:16:55.487Z,2.80
2018-04-27T13:18:02.308Z,3.30
2018-04-27T13:19:09.273Z,2.60
2018-04-27T13:20:16.088Z,3.20
2018-04-27T13:21:22.878Z,2.90
2018-04-27T13:22:29.688Z,4.10
2018-04-27T13:23:36.512Z,3.00
2018-04-27T13:24:43.295Z,2.90
2018-04-27T13:25:50.347Z,2.50
2018-04-27T13:26:57.147Z,2.70
2018-04-27T13:28:03.900Z,3.20
2018-04-27T13:29:10.774Z,2.70
2018-04-27T13:30:18.535Z,3.00
2018-04-27T13:31:24.513Z,3.50
2018-04-27T13:32:31.339Z,2.90
2018-04-27T13:33:38.152Z,2.40
2018-04-27T13:34:44.951Z,2.80
2018-04-27T13:35:51.719Z,2.70
2018-04-27T13:36:58.486Z,3.10
2018-04-27T13:38:05.588Z,2.70
2018-04-27T13:39:12.347Z,3.00
2018-04-27T13:40:19.163Z,3.10
2018-04-27T13:41:25.944Z,3.50
2018-04-27T13:42:32.841Z,2.90
2018-04-27T13:43:39.743Z,3.10
2018-04-27T13:44:46.541Z,3.30
2018-04-27T13:45:53.373Z,3.20
2018-04-27T13:47:00.157Z,3.20
2018-04-27T13:48:07.855Z,3.60
2018-04-27T13:49:14.048Z,3.20
2018-04-27T13:50:20.457Z,3.00
2018-04-27T13:51:27.335Z,3.90
2018-04-27T13:52:34.299Z,3.20
2018-04-27T13:53:41.146Z,3.30
2018-04-27T13:54:47.968Z,3.30
2018-04-27T13:55:54.800Z,3.50
2018-04-27T13:57:01.640Z,3.90
2018-04-27T13:58:08.500Z,3.90
2018-04-27T13:59:15.273Z,4.40
2018-04-27T14:00:22.200Z,4.10
2018-04-27T14:01:29.078Z,4.30
2018-04-27T14:02:35.933Z,4.20
2018-04-27T14:03:42.740Z,3.60
2018-04-27T14:04:49.639Z,3.70
2018-04-27T14:05:56.457Z,4.00
2018-04-27T14:07:03.339Z,3.70
2018-04-27T14:08:10.228Z,3.90
2018-04-27T14:09:17.167Z,4.10
2018-04-27T14:10:23.975Z,3.80
2018-04-27T14:11:30.755Z,3.50
2018-04-27T14:12:37.550Z,3.40
2018-04-27T14:13:44.478Z,3.40
2018-04-27T14:14:51.348Z,3.50
2018-04-27T14:15:58.202Z,4.00
2018-04-27T14:17:04.971Z,3.70
2018-04-27T14:18:11.872Z,3.90
2018-04-27T14:19:18.695Z,3.90
2018-04-27T14:20:25.561Z,4.10
2018-04-27T14:21:32.554Z,4.00
2018-04-27T14:22:39.350Z,4.00
2018-04-27T14:23:46.227Z,3.60
2018-04-27T14:24:53.067Z,4.30
2018-04-27T14:25:59.786Z,3.60
2018-04-27T14:27:06.501Z,4.20
2018-04-27T14:28:13.377Z,3.70
2018-04-27T14:29:20.144Z,3.80
2018-04-27T14:30:26.880Z,4.50
2018-04-27T14:31:33.653Z,3.90
2018-04-27T14:32:40.398Z,3.20
2018-04-27T14:33:47.205Z,3.70
2018-04-27T14:34:54.067Z,3.50
2018-04-27T14:36:00.813Z,3.10
2018-04-27T14:37:07.598Z,3.40
2018-04-27T14:38:14.290Z,2.80
2018-04-27T14:39:21.164Z,3.10
2018-04-27T14:40:27.900Z,2.50
2018-04-27T14:41:34.667Z,2.90
2018-04-27T14:42:41.449Z,2.60
2018-04-27T14:43:48.241Z,2.60
2018-04-27T14:44:55.258Z,2.70
2018-04-27T14:46:02.025Z,2.60
2018-04-27T14:47:08.774Z,2.50
2018-04-27T14:48:15.514Z,2.60
2018-04-27T14:49:22.239Z,2.80
2018-04-27T14:50:29.080Z,2.70
2018-04-27T14:51:35.883Z,2.20
2018-04-27T14:52:42.863Z,2.90
2018-04-27T14:53:49.623Z,3.00
2018-04-27T14:54:56.431Z,2.20
2018-04-27T14:56:03.223Z,2.50
2018-04-27T14:57:10.020Z,2.80